Terminal Aerodrome Forecast
Issued by NWS

Home | Current Version | Previous Version | Graphics & Text | Print | Product List | Glossary On
Versions: 1 2 3 4 5 6 7 8 9 10
952
FTUS43 KTOP 211723
TAFFOE
TAF
KFOE 211723Z 2118/2218 05007KT P6SM OVC100
     FM220000 05013G23KT P6SM VCSH OVC070
     FM220500 02008KT 6SM -RA OVC035
     FM220900 02009KT 6SM -RA SCT010 OVC025
     FM221200 02010KT P6SM OVC035
     FM221500 03011G21KT P6SM BKN040=

USA.gov is the U.S. government's official web portal to all federal, state and local government web resources and services.